メインページ
METAR-TAF:

METAR-TAF

空港 :

ソフィア, ブルガリア

ソフィア空港

緯度: 42-39N, 経度: 023-23E, 海抜: 586m

現時点の気象観測

当レポートは32分前の11:30(UTC)に作成
北西の風 13kt、最大23ktの突風を伴う、西から北/北西の間で変化する
気温 13°C
湿度 51%
気圧 1015 hPa
視程10km以上
高度3000ftの雲はほとんどない, 塔状積雲.
高度4600ftの雲は散在している
高度6100ftの千切れ雲あり
弱いにわか雨

METAR: LBSF 231130Z 31013G23KT 270V340 9999 -SHRA FEW030TCU SCT046 BKN061 13/03 Q1015 TEMPO 5000 SHRA

時間: 15:02 (12:02 UTC)

予報

当レポートは1時間2分前の11:00(UTC)に作成
予報は23日の 12時(UTC)から 24日の 12時(UTC)まで有効
西/北西の風 18kt
視程10km以上
高度3000ftの雲は散在している
高度5000ftの千切れ雲あり
23日の 12時(UTC)から 23日の 16時(UTC)まで一時的に
西/北西の風 20kt、最大32ktの突風を伴う
視程: 5000m
高度1600ftの雲はほとんどない
高度2500ftの雲は散在している, 積乱雲.
高度4000ftの曇り
にわか雨
23日の 17時(UTC)から 23日の 19時(UTC)まで徐々に
西の風 10kt
高度4000ftの雲は散在している
24日の 00時(UTC)から 24日の 02時(UTC)まで徐々に
変向風 4kt
視程: 5000m
24日の 07時(UTC)から 24日の 09時(UTC)まで徐々に
西の風 14kt
視程10km以上
高度3000ftの雲は散在している
高度6000ftの雲は散在している

TAF: LBSF 231100Z 2312/2412 30018KT 9999 SCT030 BKN050 TEMPO 2312/2316 30020G32KT 5000 SHRA FEW016 SCT025CB OVC040 BECMG 2317/2319 27010KT SCT040 BECMG 2400/2402 VRB04KT 5000 BR NSC BECMG 2407/2409 28014KT 9999 SCT030 SCT060

4,000以上の空港の気象観測と天気予報(METAR報とTAF報)

利用可能な観測所は地図上に黄色い丸と赤い丸で示す。

丸の上にカーソルを重ねると観測所名を参照できる。

次にクリックすると気象観測と天気予報を参照できる。

マップの切り替え:黒色「×」印の緑ボタンをクリックして拡大、「-」印の緑ボタンをクリックして縮小、緑色の三角印をクリックして隣りの地図に切り替え


METAR-TAF: